createdAt,value
2022-10-02T00:01:59.043Z,54.57
2022-10-02T00:04:54.982Z,54.47
2022-10-02T00:07:50.394Z,54.53
2022-10-02T00:10:44.915Z,54.13
2022-10-02T00:13:38.842Z,55.17
2022-10-02T00:16:35.524Z,56.17
2022-10-02T00:19:24.145Z,55.87
2022-10-02T00:22:25.376Z,56.40
2022-10-02T00:25:23.143Z,55.67
2022-10-02T00:28:23.915Z,56.60
2022-10-02T00:31:34.258Z,56.73
2022-10-02T00:34:31.469Z,57.20
2022-10-02T00:37:29.318Z,57.00
2022-10-02T00:40:38.061Z,56.73
2022-10-02T00:43:34.056Z,57.43
2022-10-02T00:46:41.302Z,57.40
2022-10-02T00:49:51.466Z,58.37
2022-10-02T00:52:51.461Z,58.23
2022-10-02T00:55:52.427Z,59.03
2022-10-02T00:58:58.025Z,57.87
2022-10-02T01:01:54.729Z,58.17
2022-10-02T01:04:43.515Z,56.97
2022-10-02T01:07:32.349Z,55.80
2022-10-02T01:10:22.444Z,55.03
2022-10-02T01:13:11.184Z,54.93
2022-10-02T01:16:01.591Z,52.90
2022-10-02T01:18:51.866Z,52.37
2022-10-02T01:21:47.679Z,52.03
2022-10-02T01:24:45.060Z,51.60
2022-10-02T01:27:38.911Z,51.97
2022-10-02T01:30:29.456Z,52.07
2022-10-02T01:33:18.325Z,50.47
2022-10-02T01:36:07.332Z,50.27
2022-10-02T01:38:56.355Z,50.17
2022-10-02T01:41:47.003Z,50.20
2022-10-02T01:44:35.416Z,49.27
2022-10-02T01:47:34.853Z,48.70
2022-10-02T01:50:33.834Z,49.80
2022-10-02T01:53:29.973Z,48.87
2022-10-02T01:56:24.568Z,50.40
2022-10-02T01:59:25.963Z,50.60
2022-10-02T02:02:22.370Z,50.67
2022-10-02T02:05:17.224Z,51.77
2022-10-02T02:08:10.811Z,51.57
2022-10-02T02:11:11.313Z,51.17
2022-10-02T02:14:04.288Z,52.17
2022-10-02T02:17:01.474Z,51.70
2022-10-02T02:19:53.516Z,51.63
2022-10-02T02:22:46.982Z,51.67
2022-10-02T02:25:39.899Z,51.63
2022-10-02T02:28:32.692Z,51.20
2022-10-02T02:31:25.991Z,51.03
2022-10-02T02:34:19.531Z,51.37
2022-10-02T02:37:13.914Z,51.93
2022-10-02T02:40:07.445Z,51.20
2022-10-02T02:43:00.855Z,50.57
2022-10-02T02:45:54.067Z,50.17
2022-10-02T02:48:47.014Z,49.80
2022-10-02T02:51:42.143Z,49.77
2022-10-02T02:54:35.447Z,50.40
2022-10-02T02:57:33.882Z,50.43
2022-10-02T03:00:23.991Z,50.63
2022-10-02T03:03:12.355Z,51.43
2022-10-02T03:06:07.913Z,50.20
2022-10-02T03:08:57.702Z,50.73
2022-10-02T03:11:54.913Z,50.93
2022-10-02T03:15:14.964Z,51.40
2022-10-02T03:18:31.131Z,51.40
2022-10-02T03:21:25.768Z,52.17
2022-10-02T03:24:23.381Z,51.23
2022-10-02T03:27:14.970Z,50.60
2022-10-02T03:30:06.724Z,49.30
2022-10-02T03:32:57.445Z,49.03
2022-10-02T03:35:46.748Z,49.30
2022-10-02T03:38:35.673Z,48.67
2022-10-02T03:41:25.309Z,48.90
2022-10-02T03:44:13.747Z,48.50
2022-10-02T03:47:02.038Z,47.70
2022-10-02T03:49:50.411Z,46.07
2022-10-02T03:52:38.860Z,45.43
2022-10-02T03:55:33.423Z,44.77
2022-10-02T03:58:23.257Z,43.67
2022-10-02T04:01:18.190Z,42.33
2022-10-02T04:04:14.270Z,41.53
2022-10-02T04:07:06.002Z,40.47
2022-10-02T04:10:04.384Z,39.50
2022-10-02T04:12:56.686Z,38.53
2022-10-02T04:15:58.048Z,39.00
2022-10-02T04:18:53.821Z,38.73
2022-10-02T04:21:47.082Z,38.80
2022-10-02T04:24:40.588Z,37.93
2022-10-02T04:27:37.231Z,39.43
2022-10-02T04:30:26.384Z,37.80
2022-10-02T04:33:18.366Z,38.17
2022-10-02T04:36:24.769Z,38.37
2022-10-02T04:39:46.631Z,38.47
2022-10-02T04:42:51.360Z,39.50
2022-10-02T04:45:59.964Z,38.60
2022-10-02T04:49:07.251Z,38.17
2022-10-02T04:52:10.306Z,39.30
2022-10-02T04:55:20.190Z,40.20
2022-10-02T04:58:25.233Z,40.03
2022-10-02T05:01:27.449Z,40.43
2022-10-02T05:04:57.165Z,40.23
2022-10-02T05:08:00.117Z,39.27
2022-10-02T05:11:00.642Z,38.07
2022-10-02T05:14:04.152Z,38.90
2022-10-02T05:17:08.451Z,37.70
2022-10-02T05:20:24.666Z,37.07
2022-10-02T05:23:27.465Z,36.77
2022-10-02T05:26:49.489Z,36.73
2022-10-02T05:30:04.136Z,35.73
2022-10-02T05:33:33.803Z,34.23
2022-10-02T05:36:40.743Z,33.93
2022-10-02T05:39:34.102Z,33.77
2022-10-02T05:42:43.150Z,33.30
2022-10-02T05:45:38.236Z,32.30
2022-10-02T05:48:30.097Z,32.43
2022-10-02T05:51:24.448Z,32.50
2022-10-02T05:54:24.471Z,31.73
2022-10-02T05:57:19.636Z,31.60
2022-10-02T06:00:24.174Z,31.00
2022-10-02T06:03:19.309Z,30.03
2022-10-02T06:06:16.586Z,28.97
2022-10-02T06:09:12.376Z,28.60
2022-10-02T06:12:08.185Z,28.83
2022-10-02T06:15:03.317Z,28.00
2022-10-02T06:17:56.127Z,27.70
2022-10-02T06:20:50.038Z,27.80
2022-10-02T06:23:41.627Z,28.17
2022-10-02T06:26:41.054Z,26.13
2022-10-02T06:29:35.613Z,26.07
2022-10-02T06:32:35.114Z,25.97
2022-10-02T06:35:43.128Z,25.10
2022-10-02T06:38:43.990Z,24.10
2022-10-02T06:41:42.168Z,23.30
2022-10-02T06:44:40.084Z,23.03
2022-10-02T06:47:41.145Z,22.00
2022-10-02T06:50:43.133Z,22.77
2022-10-02T06:54:01.364Z,22.67
2022-10-02T06:57:05.867Z,22.10
2022-10-02T07:00:09.691Z,21.43
2022-10-02T07:03:25.213Z,19.90
2022-10-02T07:06:21.963Z,19.90
2022-10-02T07:09:34.669Z,17.43
2022-10-02T07:12:44.042Z,17.83
2022-10-02T07:15:57.777Z,16.63
2022-10-02T07:19:00.028Z,16.90
2022-10-02T07:22:11.057Z,14.93
2022-10-02T07:25:27.198Z,15.50
2022-10-02T07:28:27.316Z,14.53
2022-10-02T07:31:29.476Z,13.80
2022-10-02T07:34:33.452Z,13.37
2022-10-02T07:37:32.138Z,14.20
2022-10-02T07:40:36.325Z,14.30
2022-10-02T07:43:42.383Z,13.27
2022-10-02T07:46:42.523Z,11.80
2022-10-02T07:49:44.198Z,11.77
2022-10-02T07:52:47.541Z,11.30
2022-10-02T07:55:41.594Z,11.47
2022-10-02T07:58:37.726Z,11.17
2022-10-02T08:01:30.523Z,11.77
2022-10-02T08:04:34.639Z,10.43
2022-10-02T08:07:25.676Z,10.60
2022-10-02T08:10:16.491Z,10.93
2022-10-02T08:13:12.252Z,9.70
2022-10-02T08:16:00.789Z,9.57
2022-10-02T08:18:53.979Z,9.03
2022-10-02T08:21:48.572Z,8.10
2022-10-02T08:24:43.029Z,7.77
2022-10-02T08:27:46.832Z,7.30
2022-10-02T08:30:35.310Z,8.20
2022-10-02T08:33:24.331Z,8.93
2022-10-02T08:36:51.783Z,7.43
2022-10-02T08:40:02.866Z,8.30
2022-10-02T08:43:29.823Z,7.90
2022-10-02T08:46:45.597Z,7.20
2022-10-02T08:50:23.741Z,7.17
2022-10-02T08:53:47.594Z,7.47
2022-10-02T08:56:52.138Z,8.17
2022-10-02T09:00:09.660Z,7.00
2022-10-02T09:03:31.316Z,8.30
2022-10-02T09:06:59.146Z,7.90
2022-10-02T09:10:29.632Z,8.23
2022-10-02T09:13:46.587Z,7.40
2022-10-02T09:16:46.472Z,6.33
2022-10-02T09:19:49.622Z,6.10
2022-10-02T09:22:59.644Z,5.90
2022-10-02T09:25:58.729Z,4.80
2022-10-02T09:29:15.800Z,5.27
2022-10-02T09:32:34.790Z,4.53
2022-10-02T09:35:57.856Z,4.93
2022-10-02T09:39:29.421Z,4.60
2022-10-02T09:42:46.127Z,4.90
2022-10-02T09:46:04.282Z,7.57
2022-10-02T11:22:42.733Z,6.73
2022-10-02T11:26:00.455Z,5.37
2022-10-02T11:29:19.776Z,5.77
2022-10-02T11:32:43.821Z,3.78
2022-10-02T11:35:49.145Z,3.67
2022-10-02T11:38:56.159Z,3.70
2022-10-02T11:42:16.217Z,6.05
2022-10-02T11:45:32.868Z,4.67
2022-10-02T11:48:45.002Z,4.95
2022-10-02T11:51:58.369Z,3.50
2022-10-02T11:54:56.381Z,3.60
2022-10-02T11:57:58.017Z,3.97
2022-10-02T12:01:11.914Z,3.55
2022-10-02T12:04:22.416Z,3.60
2022-10-02T12:07:25.710Z,4.13
2022-10-02T12:10:49.350Z,3.15
2022-10-02T12:14:01.369Z,3.33
2022-10-02T12:17:07.656Z,3.42
2022-10-02T12:20:32.904Z,3.33
2022-10-02T12:23:52.169Z,4.88
2022-10-02T12:27:08.414Z,3.42
2022-10-02T12:30:07.944Z,3.08
2022-10-02T12:33:16.352Z,3.08
2022-10-02T12:36:27.479Z,3.30
2022-10-02T12:39:30.683Z,3.15
2022-10-02T12:42:46.766Z,2.80
2022-10-02T12:46:01.932Z,2.67
2022-10-02T12:49:03.702Z,3.05
2022-10-02T12:52:27.965Z,2.78
2022-10-02T12:55:58.224Z,2.88
2022-10-02T12:59:02.229Z,3.15
2022-10-02T13:02:15.224Z,3.33
2022-10-02T13:05:33.255Z,2.95
2022-10-02T13:08:51.209Z,3.78
2022-10-02T13:11:56.124Z,2.80
2022-10-02T13:15:13.970Z,3.10
2022-10-02T13:18:14.547Z,3.15
2022-10-02T13:21:13.660Z,3.10
2022-10-02T13:24:14.699Z,3.00
2022-10-02T13:27:18.664Z,3.13
2022-10-02T13:30:15.371Z,4.35
2022-10-02T13:33:26.860Z,3.25
2022-10-02T13:36:21.984Z,3.13
2022-10-02T13:39:41.639Z,4.70
2022-10-02T13:42:43.053Z,4.50
2022-10-02T13:45:39.093Z,3.45
2022-10-02T13:48:42.923Z,3.15
2022-10-02T13:51:41.838Z,3.20
2022-10-02T13:54:51.279Z,3.90
2022-10-02T13:57:51.941Z,4.53
2022-10-02T14:00:55.845Z,3.10
2022-10-02T14:04:15.122Z,3.38
2022-10-02T14:07:14.447Z,3.22
2022-10-02T14:10:15.289Z,4.28
2022-10-02T14:13:26.509Z,2.97
2022-10-02T14:16:31.167Z,3.35
2022-10-02T14:19:44.547Z,3.67
2022-10-02T14:22:41.647Z,3.30
2022-10-02T14:25:43.721Z,3.83
2022-10-02T14:29:20.303Z,3.38
2022-10-02T14:32:32.987Z,3.55
2022-10-02T14:35:48.497Z,4.60
2022-10-02T14:38:50.630Z,5.67
2022-10-02T14:42:04.473Z,6.20
2022-10-02T14:45:21.847Z,7.83
2022-10-02T14:48:21.713Z,9.70
2022-10-02T14:51:28.278Z,9.87
2022-10-02T14:54:35.783Z,10.63
2022-10-02T14:57:37.389Z,10.83
2022-10-02T15:00:30.586Z,9.40
2022-10-02T15:03:36.703Z,8.40
2022-10-02T15:06:51.373Z,7.85
2022-10-02T15:09:50.204Z,7.13
2022-10-02T15:12:49.366Z,8.00
2022-10-02T15:15:45.635Z,7.20
2022-10-02T15:18:42.174Z,7.33
2022-10-02T15:21:39.029Z,7.03
2022-10-02T15:24:31.648Z,8.10
2022-10-02T15:27:24.731Z,9.57
2022-10-02T15:30:21.928Z,10.17
2022-10-02T15:33:22.373Z,10.90
2022-10-02T15:36:24.574Z,11.43
2022-10-02T15:39:40.072Z,12.20
2022-10-02T15:42:49.706Z,13.47
2022-10-02T15:46:00.723Z,14.60
2022-10-02T15:49:01.218Z,15.63
2022-10-02T15:52:03.737Z,16.63
2022-10-02T15:55:09.204Z,16.07
2022-10-02T15:58:18.015Z,16.97
2022-10-02T16:01:26.681Z,16.83
2022-10-02T16:04:25.551Z,15.07
2022-10-02T16:07:36.692Z,14.40
2022-10-02T16:10:32.086Z,14.37
2022-10-02T16:13:42.347Z,14.33
2022-10-02T16:17:07.344Z,14.17
2022-10-02T16:20:32.696Z,15.87
2022-10-02T16:23:34.843Z,16.50
2022-10-02T16:26:38.764Z,17.43
2022-10-02T16:29:40.752Z,18.63
2022-10-02T16:32:37.139Z,20.20
2022-10-02T16:36:04.195Z,20.97
2022-10-02T16:39:02.557Z,24.73
2022-10-02T16:42:03.302Z,26.07
2022-10-02T16:45:29.094Z,26.67
2022-10-02T16:48:23.625Z,29.17
2022-10-02T16:51:18.807Z,28.73
2022-10-02T16:54:18.920Z,30.77
2022-10-02T16:57:22.480Z,31.73
2022-10-02T17:00:16.927Z,32.20
2022-10-02T17:03:12.837Z,33.57
2022-10-02T17:06:08.039Z,33.67
2022-10-02T17:09:06.763Z,33.63
2022-10-02T17:12:03.798Z,34.67
2022-10-02T17:14:58.250Z,34.83
2022-10-02T17:17:57.865Z,35.50
2022-10-02T17:20:51.226Z,35.77
2022-10-02T17:23:49.392Z,36.93
2022-10-02T17:26:43.626Z,37.53
2022-10-02T17:29:39.307Z,37.27
2022-10-02T17:32:50.338Z,36.97
2022-10-02T17:35:44.855Z,37.53
2022-10-02T17:38:55.415Z,36.40
2022-10-02T17:41:52.221Z,36.67
2022-10-02T17:44:49.547Z,36.47
2022-10-02T17:47:59.113Z,36.57
2022-10-02T17:51:01.111Z,37.73
2022-10-02T17:54:22.353Z,38.17
2022-10-02T17:57:24.110Z,39.37
2022-10-02T18:00:21.346Z,40.67
2022-10-02T18:03:27.510Z,41.23
2022-10-02T18:06:26.651Z,39.70
2022-10-02T18:09:35.646Z,39.50
2022-10-02T18:12:42.144Z,41.10
2022-10-02T18:15:43.256Z,39.53
2022-10-02T18:18:39.037Z,39.80
2022-10-02T18:21:38.017Z,39.10
2022-10-02T18:24:36.570Z,40.37
2022-10-02T18:27:43.569Z,41.37
2022-10-02T18:30:43.616Z,42.07
2022-10-02T18:34:06.837Z,42.40
2022-10-02T18:37:12.130Z,44.13
2022-10-02T18:40:17.522Z,43.60
2022-10-02T18:43:22.617Z,43.63
2022-10-02T18:46:21.015Z,44.23
2022-10-02T18:49:35.866Z,44.73
2022-10-02T18:53:03.684Z,46.87
2022-10-02T18:56:03.530Z,48.60
2022-10-02T18:59:03.311Z,49.43
2022-10-02T19:02:05.324Z,50.40
2022-10-02T19:05:13.545Z,51.00
2022-10-02T19:08:19.350Z,51.37
2022-10-02T19:11:18.514Z,55.67
2022-10-02T19:14:14.889Z,44.97
2022-10-02T19:17:05.893Z,40.00
2022-10-02T19:19:54.413Z,41.17
2022-10-02T19:22:44.213Z,43.70
2022-10-02T19:25:32.727Z,44.13
2022-10-02T19:28:25.522Z,44.23
2022-10-02T19:31:21.880Z,46.73
2022-10-02T19:34:17.419Z,48.20
2022-10-02T19:37:08.037Z,48.53
2022-10-02T19:40:01.945Z,49.83
2022-10-02T19:42:54.790Z,50.40
2022-10-02T19:45:44.014Z,51.30
2022-10-02T19:48:33.790Z,51.77
2022-10-02T19:51:22.342Z,53.87
2022-10-02T19:54:17.219Z,53.93
2022-10-02T19:57:15.001Z,54.30
2022-10-02T20:00:05.226Z,55.10
2022-10-02T20:02:57.206Z,55.17
2022-10-02T20:06:03.164Z,56.40
2022-10-02T20:08:58.927Z,57.67
2022-10-02T20:12:10.455Z,57.17
2022-10-02T20:15:07.328Z,57.53
2022-10-02T20:17:56.870Z,58.67
2022-10-02T20:20:48.860Z,58.53
2022-10-02T20:23:43.734Z,60.10
2022-10-02T20:26:42.217Z,60.23
2022-10-02T20:29:46.937Z,61.23
2022-10-02T20:32:50.972Z,61.57
2022-10-02T20:35:48.642Z,63.47
2022-10-02T20:38:52.731Z,63.80
2022-10-02T20:41:59.024Z,65.70
2022-10-02T20:44:48.897Z,66.00
2022-10-02T20:48:25.896Z,65.83
2022-10-02T20:51:34.330Z,67.10
2022-10-02T20:54:46.826Z,68.73
2022-10-02T20:58:15.501Z,69.07
2022-10-02T21:01:21.920Z,68.60
2022-10-02T21:05:09.971Z,68.70
2022-10-02T21:08:28.223Z,69.70
2022-10-02T21:11:28.867Z,70.13
2022-10-02T21:15:11.982Z,67.87
2022-10-02T21:18:23.885Z,69.23
2022-10-02T21:22:07.951Z,69.93
2022-10-02T21:25:46.319Z,70.53
2022-10-02T21:29:29.733Z,72.47
2022-10-02T21:32:45.966Z,72.23
2022-10-02T21:35:49.060Z,72.70
2022-10-02T21:39:30.822Z,71.57
2022-10-02T21:43:17.811Z,73.87
2022-10-02T21:46:48.737Z,72.63
2022-10-02T21:50:17.525Z,72.97
2022-10-02T21:53:52.143Z,74.57
2022-10-02T21:57:28.334Z,73.17
2022-10-02T22:00:35.168Z,74.80
2022-10-02T22:04:02.243Z,74.33
2022-10-02T22:07:06.441Z,74.97
2022-10-02T22:10:01.033Z,76.07
2022-10-02T22:13:09.367Z,74.07
2022-10-02T22:16:15.574Z,74.47
2022-10-02T22:19:17.701Z,74.10
2022-10-02T22:22:29.576Z,75.07
2022-10-02T22:25:33.315Z,76.30
2022-10-02T22:28:32.946Z,77.23
2022-10-02T22:31:57.805Z,74.03
2022-10-02T22:34:56.934Z,74.50
2022-10-02T22:38:10.509Z,74.73
2022-10-02T22:41:08.097Z,75.07
2022-10-02T22:44:02.385Z,73.37
2022-10-02T22:47:03.559Z,72.90
2022-10-02T22:49:56.680Z,71.63
2022-10-02T22:52:50.373Z,70.27
2022-10-02T22:55:49.267Z,69.50
2022-10-02T22:58:48.515Z,70.07
2022-10-02T23:01:46.621Z,67.17
2022-10-02T23:04:57.100Z,66.90
2022-10-02T23:07:53.639Z,65.87
2022-10-02T23:10:47.843Z,66.43
2022-10-02T23:13:46.933Z,64.93
2022-10-02T23:16:49.572Z,63.10
2022-10-02T23:19:50.850Z,64.70
2022-10-02T23:22:53.047Z,62.93
2022-10-02T23:26:02.899Z,62.10
2022-10-02T23:28:59.400Z,61.77
2022-10-02T23:31:57.575Z,61.13
2022-10-02T23:34:56.965Z,60.73
2022-10-02T23:37:52.734Z,59.63
2022-10-02T23:41:19.858Z,58.97
2022-10-02T23:44:18.273Z,60.50
2022-10-02T23:47:27.795Z,58.73
2022-10-02T23:50:25.496Z,57.03
2022-10-02T23:53:41.967Z,55.20
2022-10-02T23:57:01.203Z,54.70
